createdAt,value
2023-01-29T00:01:55.281Z,2.20
2023-01-29T00:04:23.067Z,2.05
2023-01-29T00:06:50.169Z,1.90
2023-01-29T00:09:19.211Z,2.30
2023-01-29T00:11:46.305Z,2.03
2023-01-29T00:14:13.602Z,2.28
2023-01-29T00:16:40.845Z,2.20
2023-01-29T00:19:07.983Z,2.28
2023-01-29T00:21:35.096Z,2.30
2023-01-29T00:24:02.421Z,1.75
2023-01-29T00:26:30.948Z,1.90
2023-01-29T00:28:58.072Z,2.10
2023-01-29T00:31:25.384Z,2.00
2023-01-29T00:33:52.940Z,2.30
2023-01-29T00:36:21.580Z,1.88
2023-01-29T00:38:54.167Z,2.28
2023-01-29T00:41:21.969Z,2.03
2023-01-29T00:43:50.518Z,2.03
2023-01-29T00:46:17.822Z,2.03
2023-01-29T00:48:44.952Z,1.75
2023-01-29T00:51:12.029Z,2.17
2023-01-29T00:53:39.137Z,2.17
2023-01-29T00:56:07.009Z,2.10
2023-01-29T00:58:34.119Z,2.03
2023-01-29T01:01:02.894Z,2.10
2023-01-29T01:03:30.485Z,1.80
2023-01-29T01:06:05.198Z,2.00
2023-01-29T01:08:32.575Z,2.20
2023-01-29T01:11:01.715Z,1.90
2023-01-29T01:13:29.590Z,1.80
2023-01-29T01:15:56.764Z,1.77
2023-01-29T01:18:25.308Z,2.35
2023-01-29T01:20:57.638Z,2.00
2023-01-29T01:23:24.862Z,1.70
2023-01-29T01:25:51.953Z,2.00
2023-01-29T01:28:19.170Z,2.00
2023-01-29T01:30:46.346Z,1.77
2023-01-29T01:33:13.598Z,1.92
2023-01-29T01:35:42.052Z,1.80
2023-01-29T01:38:09.257Z,2.10
2023-01-29T01:40:36.387Z,1.80
2023-01-29T01:43:03.515Z,1.75
2023-01-29T01:45:32.216Z,2.03
2023-01-29T01:48:04.356Z,2.03
2023-01-29T01:50:35.507Z,1.77
2023-01-29T01:53:07.938Z,1.77
2023-01-29T01:55:40.658Z,1.80
2023-01-29T01:58:11.743Z,1.90
2023-01-29T02:00:39.730Z,2.10
2023-01-29T02:03:21.516Z,2.05
2023-01-29T02:05:49.794Z,1.58
2023-01-29T02:08:24.417Z,1.70
2023-01-29T02:10:52.027Z,1.77
2023-01-29T02:13:19.239Z,1.80
2023-01-29T02:15:46.952Z,1.77
2023-01-29T02:18:16.269Z,1.95
2023-01-29T02:20:49.151Z,1.90
2023-01-29T02:23:43.244Z,1.83
2023-01-29T02:26:31.950Z,1.80
2023-01-29T02:29:07.058Z,1.83
2023-01-29T02:31:41.560Z,1.65
2023-01-29T02:34:17.303Z,1.60
2023-01-29T02:36:49.533Z,2.00
2023-01-29T02:39:23.417Z,1.70
2023-01-29T02:42:02.772Z,1.83
2023-01-29T02:44:39.353Z,1.83
2023-01-29T02:47:16.981Z,1.60
2023-01-29T02:49:48.678Z,1.80
2023-01-29T02:52:19.677Z,1.88
2023-01-29T02:54:53.097Z,1.50
2023-01-29T02:57:23.120Z,1.50
2023-01-29T02:59:55.684Z,1.50
2023-01-29T03:02:31.254Z,1.45
2023-01-29T03:05:01.633Z,1.67
2023-01-29T03:07:35.408Z,1.30
2023-01-29T03:10:04.627Z,1.67
2023-01-29T03:12:37.798Z,1.70
2023-01-29T03:15:10.328Z,1.48
2023-01-29T03:17:41.873Z,1.52
2023-01-29T03:20:16.563Z,1.50
2023-01-29T03:22:48.955Z,1.60
2023-01-29T03:25:20.734Z,1.67
2023-01-29T03:27:51.439Z,1.50
2023-01-29T03:30:22.312Z,1.50
2023-01-29T03:32:50.916Z,1.50
2023-01-29T03:35:21.146Z,1.63
2023-01-29T03:37:49.325Z,1.40
2023-01-29T03:40:16.833Z,1.30
2023-01-29T03:43:05.472Z,1.50
2023-01-29T03:45:40.242Z,1.50
2023-01-29T03:48:15.975Z,1.50
2023-01-29T03:50:54.439Z,1.50
2023-01-29T03:53:26.054Z,1.50
2023-01-29T03:55:59.911Z,1.60
2023-01-29T03:58:35.404Z,1.58
2023-01-29T04:01:10.547Z,1.45
2023-01-29T04:03:41.296Z,1.30
2023-01-29T04:06:13.503Z,1.58
2023-01-29T04:08:51.056Z,1.30
2023-01-29T04:11:22.134Z,1.50
2023-01-29T04:13:49.800Z,1.60
2023-01-29T04:16:22.919Z,1.45
2023-01-29T04:18:50.479Z,1.23
2023-01-29T04:21:18.424Z,1.50
2023-01-29T04:23:45.660Z,1.25
2023-01-29T04:26:46.519Z,1.50
2023-01-29T04:29:25.238Z,1.25
2023-01-29T04:32:00.474Z,1.52
2023-01-29T04:34:35.949Z,1.50
2023-01-29T04:37:12.561Z,1.40
2023-01-29T04:39:48.707Z,1.27
2023-01-29T04:42:25.548Z,1.35
2023-01-29T04:45:01.384Z,1.38
2023-01-29T04:47:37.128Z,1.40
2023-01-29T04:50:15.209Z,1.70
2023-01-29T04:52:51.463Z,1.48
2023-01-29T04:55:25.454Z,1.58
2023-01-29T04:58:03.440Z,1.20
2023-01-29T05:00:35.476Z,1.40
2023-01-29T05:03:05.959Z,1.30
2023-01-29T05:05:34.644Z,1.42
2023-01-29T05:08:04.773Z,1.13
2023-01-29T05:10:33.419Z,1.30
2023-01-29T05:13:03.451Z,1.52
2023-01-29T05:15:37.479Z,1.27
2023-01-29T05:18:06.674Z,1.40
2023-01-29T05:20:36.409Z,1.38
2023-01-29T05:23:03.735Z,1.00
2023-01-29T05:25:33.143Z,1.15
2023-01-29T05:28:00.487Z,1.13
2023-01-29T05:30:27.967Z,1.10
2023-01-29T05:32:55.231Z,1.40
2023-01-29T05:35:23.666Z,1.50
2023-01-29T05:37:50.785Z,1.30
2023-01-29T05:40:18.258Z,1.35
2023-01-29T05:42:45.537Z,1.27
2023-01-29T05:45:12.637Z,1.20
2023-01-29T05:47:39.737Z,1.30
2023-01-29T05:50:08.274Z,1.50
2023-01-29T05:52:36.838Z,1.45
2023-01-29T05:55:05.710Z,1.40
2023-01-29T05:57:32.827Z,1.10
2023-01-29T05:59:59.997Z,1.42
2023-01-29T06:02:29.616Z,1.25
2023-01-29T06:04:56.836Z,1.30
2023-01-29T06:07:26.961Z,1.10
2023-01-29T06:09:55.467Z,1.27
2023-01-29T06:12:22.569Z,1.33
2023-01-29T06:14:49.798Z,1.17
2023-01-29T06:17:16.905Z,1.30
2023-01-29T06:19:44.212Z,1.35
2023-01-29T06:22:11.453Z,1.08
2023-01-29T06:24:38.585Z,1.15
2023-01-29T06:27:07.026Z,1.30
2023-01-29T06:29:34.130Z,1.15
2023-01-29T06:32:01.336Z,1.30
2023-01-29T06:34:28.494Z,1.10
2023-01-29T06:36:55.607Z,1.10
2023-01-29T06:39:22.721Z,1.30
2023-01-29T06:41:50.027Z,1.00
2023-01-29T06:44:18.876Z,0.95
2023-01-29T06:46:45.979Z,1.20
2023-01-29T06:49:13.165Z,1.20
2023-01-29T06:51:40.267Z,1.20
2023-01-29T06:54:07.460Z,1.20
2023-01-29T06:56:34.577Z,1.30
2023-01-29T06:59:02.001Z,1.35
2023-01-29T07:01:36.110Z,1.30
2023-01-29T07:04:03.785Z,1.30
2023-01-29T07:06:31.553Z,1.00
2023-01-29T07:08:58.671Z,1.23
2023-01-29T07:11:26.011Z,1.52
2023-01-29T07:13:53.630Z,1.17
2023-01-29T07:16:20.799Z,1.13
2023-01-29T07:18:49.403Z,1.20
2023-01-29T07:21:16.548Z,1.48
2023-01-29T07:23:43.659Z,1.30
2023-01-29T07:26:11.638Z,1.05
2023-01-29T07:28:39.757Z,1.15
2023-01-29T07:31:07.843Z,1.30
2023-01-29T07:33:35.266Z,0.98
2023-01-29T07:36:07.861Z,1.20
2023-01-29T07:38:34.962Z,1.30
2023-01-29T07:41:03.252Z,1.40
2023-01-29T07:43:30.622Z,1.20
2023-01-29T07:46:01.752Z,1.10
2023-01-29T07:48:29.060Z,1.08
2023-01-29T07:50:56.761Z,1.17
2023-01-29T07:53:25.745Z,1.15
2023-01-29T07:55:52.893Z,1.20
2023-01-29T07:58:20.017Z,1.20
2023-01-29T08:00:47.236Z,1.30
2023-01-29T08:03:16.538Z,1.25
2023-01-29T08:05:44.164Z,0.95
2023-01-29T08:08:12.004Z,1.08
2023-01-29T08:10:41.337Z,1.10
2023-01-29T08:13:09.303Z,1.20
2023-01-29T08:15:38.791Z,1.20
2023-01-29T08:18:06.615Z,1.27
2023-01-29T08:20:33.720Z,1.30
2023-01-29T08:23:01.605Z,1.10
2023-01-29T08:25:29.223Z,1.20
2023-01-29T08:27:58.900Z,1.20
2023-01-29T08:30:27.125Z,1.20
2023-01-29T08:32:54.419Z,1.10
2023-01-29T08:35:21.933Z,1.35
2023-01-29T08:37:56.427Z,1.10
2023-01-29T08:40:23.581Z,1.13
2023-01-29T08:42:50.847Z,1.00
2023-01-29T08:45:19.340Z,1.35
2023-01-29T08:47:47.086Z,1.30
2023-01-29T08:50:14.534Z,1.20
2023-01-29T08:52:42.467Z,1.10
2023-01-29T08:55:10.332Z,1.30
2023-01-29T08:57:37.916Z,1.50
2023-01-29T09:00:06.615Z,1.40
2023-01-29T09:02:35.131Z,1.27
2023-01-29T09:05:02.259Z,1.60
2023-01-29T09:07:29.839Z,1.30
2023-01-29T09:09:56.971Z,1.23
2023-01-29T09:12:24.091Z,1.45
2023-01-29T09:14:51.248Z,1.30
2023-01-29T09:17:18.364Z,1.13
2023-01-29T09:19:46.912Z,1.20
2023-01-29T09:22:14.101Z,1.63
2023-01-29T09:24:41.192Z,1.33
2023-01-29T09:27:08.354Z,1.20
2023-01-29T09:29:36.083Z,1.73
2023-01-29T09:32:04.704Z,1.20
2023-01-29T09:34:31.837Z,1.38
2023-01-29T09:37:00.763Z,1.30
2023-01-29T09:39:27.944Z,1.27
2023-01-29T09:42:03.476Z,1.38
2023-01-29T09:44:46.966Z,1.30
2023-01-29T09:47:16.923Z,1.20
2023-01-29T09:49:47.943Z,1.40
2023-01-29T09:52:20.368Z,1.50
2023-01-29T09:54:53.785Z,1.30
2023-01-29T09:57:25.488Z,1.50
2023-01-29T09:59:52.601Z,1.50
2023-01-29T10:02:39.796Z,1.25
2023-01-29T10:05:26.491Z,1.33
2023-01-29T10:08:20.244Z,1.50
2023-01-29T10:10:51.017Z,1.38
2023-01-29T10:13:29.277Z,1.30
2023-01-29T10:16:11.713Z,1.38
2023-01-29T10:18:54.873Z,1.42
2023-01-29T10:21:38.040Z,1.20
2023-01-29T10:24:17.152Z,1.60
2023-01-29T10:26:44.333Z,1.63
2023-01-29T10:29:17.654Z,1.48
2023-01-29T10:31:51.296Z,1.50
2023-01-29T10:34:26.152Z,1.73
2023-01-29T10:36:55.086Z,1.42
2023-01-29T10:39:25.487Z,1.48
2023-01-29T10:42:06.824Z,1.70
2023-01-29T10:44:49.428Z,1.20
2023-01-29T10:47:30.755Z,1.27
2023-01-29T10:50:17.110Z,1.60
2023-01-29T10:53:05.430Z,1.40
2023-01-29T10:55:46.510Z,1.52
2023-01-29T10:58:23.296Z,1.48
2023-01-29T11:00:51.205Z,1.45
2023-01-29T11:03:27.999Z,1.40
2023-01-29T11:06:04.132Z,1.40
2023-01-29T11:08:37.116Z,1.50
2023-01-29T11:11:08.397Z,1.30
2023-01-29T11:13:41.048Z,1.70
2023-01-29T11:16:09.562Z,1.60
2023-01-29T11:18:52.648Z,1.25
2023-01-29T11:21:20.048Z,1.27
2023-01-29T11:23:47.179Z,1.33
2023-01-29T11:26:19.520Z,1.30
2023-01-29T11:28:48.056Z,1.20
2023-01-29T11:31:17.368Z,1.48
2023-01-29T11:33:45.802Z,1.25
2023-01-29T11:36:29.750Z,1.40
2023-01-29T11:39:12.205Z,1.25
2023-01-29T11:41:45.491Z,1.52
2023-01-29T11:44:26.926Z,1.40
2023-01-29T11:46:54.990Z,1.27
2023-01-29T11:49:31.103Z,1.60
2023-01-29T11:52:01.095Z,1.20
2023-01-29T11:54:32.466Z,1.30
2023-01-29T11:57:01.709Z,1.50
2023-01-29T11:59:40.647Z,1.40
2023-01-29T12:02:29.579Z,1.40
2023-01-29T12:05:00.032Z,1.13
2023-01-29T12:07:28.559Z,1.30
2023-01-29T12:09:57.902Z,1.08
2023-01-29T12:12:37.375Z,1.20
2023-01-29T12:15:15.363Z,1.33
2023-01-29T12:17:45.299Z,1.27
2023-01-29T12:20:17.571Z,1.40
2023-01-29T12:22:50.949Z,1.20
2023-01-29T12:25:23.211Z,1.50
2023-01-29T12:27:59.219Z,1.33
2023-01-29T12:30:32.243Z,1.50
2023-01-29T12:33:05.060Z,1.23
2023-01-29T12:35:35.840Z,1.45
2023-01-29T12:38:08.397Z,1.20
2023-01-29T12:40:43.368Z,1.40
2023-01-29T12:43:16.700Z,1.55
2023-01-29T12:45:48.082Z,1.25
2023-01-29T12:48:23.374Z,1.20
2023-01-29T12:50:52.798Z,1.30
2023-01-29T12:53:26.567Z,1.30
2023-01-29T12:55:57.090Z,1.85
2023-01-29T12:58:32.193Z,1.55
2023-01-29T13:01:05.015Z,1.33
2023-01-29T13:03:46.550Z,1.25
2023-01-29T13:06:17.911Z,1.40
2023-01-29T13:08:48.777Z,1.30
2023-01-29T13:11:21.840Z,1.23
2023-01-29T13:13:54.629Z,1.10
2023-01-29T13:16:26.710Z,1.20
2023-01-29T13:18:57.531Z,1.35
2023-01-29T13:21:29.324Z,1.30
2023-01-29T13:24:00.143Z,1.27
2023-01-29T13:26:27.442Z,1.10
2023-01-29T13:28:56.090Z,1.20
2023-01-29T13:31:34.930Z,1.33
2023-01-29T13:34:09.998Z,1.42
2023-01-29T13:36:41.639Z,1.40
2023-01-29T13:39:20.494Z,1.38
2023-01-29T13:41:47.940Z,1.27
2023-01-29T13:44:22.726Z,1.23
2023-01-29T13:46:54.991Z,1.40
2023-01-29T13:49:30.761Z,1.30
2023-01-29T13:51:59.449Z,1.15
2023-01-29T13:54:27.221Z,1.33
2023-01-29T13:56:59.688Z,1.20
2023-01-29T13:59:52.837Z,1.20
2023-01-29T14:02:25.209Z,1.50
2023-01-29T14:05:12.635Z,1.20
2023-01-29T14:07:49.498Z,1.20
2023-01-29T14:10:19.609Z,1.30
2023-01-29T14:12:49.449Z,1.10
2023-01-29T14:15:32.405Z,1.30
2023-01-29T14:18:06.614Z,1.17
2023-01-29T14:23:28.107Z,1.27
2023-01-29T14:25:56.165Z,0.98
2023-01-29T14:28:26.849Z,1.10
2023-01-29T14:30:55.624Z,1.20
2023-01-29T14:33:27.387Z,1.17
2023-01-29T14:35:56.780Z,1.00
2023-01-29T14:38:27.750Z,1.23
2023-01-29T14:41:16.297Z,1.42
2023-01-29T14:43:43.425Z,1.10
2023-01-29T14:46:44.896Z,1.20
2023-01-29T14:49:12.020Z,1.20
2023-01-29T14:51:43.896Z,1.10
2023-01-29T14:54:27.845Z,0.90
2023-01-29T14:56:59.398Z,1.17
2023-01-29T14:59:32.892Z,1.23
2023-01-29T15:02:11.916Z,1.30
2023-01-29T15:04:43.481Z,1.00
2023-01-29T15:07:23.158Z,1.30
2023-01-29T15:10:13.300Z,1.25
2023-01-29T15:12:48.340Z,1.00
2023-01-29T15:15:18.886Z,1.10
2023-01-29T15:17:56.596Z,1.00
2023-01-29T15:20:30.464Z,1.10
2023-01-29T15:22:57.690Z,0.90
2023-01-29T15:25:25.706Z,1.20
2023-01-29T15:27:54.731Z,1.17
2023-01-29T15:30:29.092Z,1.50
2023-01-29T15:32:58.203Z,1.27
2023-01-29T15:35:28.890Z,1.08
2023-01-29T15:38:01.443Z,1.27
2023-01-29T15:40:29.015Z,1.20
2023-01-29T15:42:56.174Z,1.20
2023-01-29T15:45:27.107Z,1.20
2023-01-29T15:47:58.161Z,1.20
2023-01-29T15:50:25.523Z,1.08
2023-01-29T15:52:54.572Z,1.20
2023-01-29T15:55:23.832Z,1.05
2023-01-29T15:57:51.275Z,1.10
2023-01-29T16:00:22.839Z,1.23
2023-01-29T16:02:50.143Z,1.27
2023-01-29T16:05:21.806Z,1.20
2023-01-29T16:07:51.105Z,1.20
2023-01-29T16:10:20.298Z,1.30
2023-01-29T16:12:49.412Z,1.02
2023-01-29T16:15:23.641Z,1.10
2023-01-29T16:17:50.815Z,1.08
2023-01-29T16:20:32.475Z,1.00
2023-01-29T16:23:00.328Z,1.08
2023-01-29T16:25:29.933Z,1.27
2023-01-29T16:27:57.482Z,1.58
2023-01-29T16:30:26.558Z,1.00
2023-01-29T16:33:01.637Z,1.10
2023-01-29T16:35:30.854Z,1.25
2023-01-29T16:38:02.858Z,0.95
2023-01-29T16:40:32.331Z,1.20
2023-01-29T16:43:42.520Z,1.10
2023-01-29T16:46:18.931Z,1.20
2023-01-29T16:48:47.124Z,1.05
2023-01-29T16:51:23.608Z,0.98
2023-01-29T16:53:59.633Z,1.17
2023-01-29T16:56:30.024Z,1.08
2023-01-29T16:58:57.945Z,1.35
2023-01-29T17:01:28.820Z,1.05
2023-01-29T17:04:10.240Z,1.30
2023-01-29T17:06:42.708Z,1.30
2023-01-29T17:09:20.993Z,1.30
2023-01-29T17:11:53.569Z,1.20
2023-01-29T17:14:20.657Z,1.40
2023-01-29T17:16:50.637Z,1.05
2023-01-29T17:19:19.280Z,1.50
2023-01-29T17:21:47.848Z,1.20
2023-01-29T17:24:14.985Z,1.25
2023-01-29T17:26:42.556Z,1.02
2023-01-29T17:29:14.341Z,1.20
2023-01-29T17:31:41.734Z,1.10
2023-01-29T17:34:11.387Z,1.15
2023-01-29T17:36:38.638Z,1.20
2023-01-29T17:39:15.194Z,1.20
2023-01-29T17:41:46.536Z,1.38
2023-01-29T17:44:14.420Z,1.40
2023-01-29T17:46:41.548Z,1.20
2023-01-29T17:49:19.975Z,1.00
2023-01-29T17:51:47.096Z,1.33
2023-01-29T17:54:15.902Z,1.40
2023-01-29T17:56:43.025Z,1.40
2023-01-29T17:59:14.412Z,1.60
2023-01-29T18:01:41.663Z,1.38
2023-01-29T18:04:08.860Z,1.40
2023-01-29T18:06:36.340Z,1.35
2023-01-29T18:09:04.184Z,1.55
2023-01-29T18:11:32.883Z,1.50
2023-01-29T18:14:02.682Z,1.33
2023-01-29T18:16:41.244Z,1.20
2023-01-29T18:19:14.054Z,1.30
2023-01-29T18:21:41.165Z,1.52
2023-01-29T18:24:08.536Z,1.50
2023-01-29T18:26:37.114Z,1.20
2023-01-29T18:29:04.839Z,1.58
2023-01-29T18:31:32.082Z,1.50
2023-01-29T18:33:59.409Z,1.38
2023-01-29T18:36:26.550Z,1.65
2023-01-29T18:38:53.709Z,1.60
2023-01-29T18:41:20.876Z,1.45
2023-01-29T18:43:49.315Z,1.35
2023-01-29T18:46:16.587Z,1.30
2023-01-29T18:48:43.776Z,1.40
2023-01-29T18:51:10.897Z,1.33
2023-01-29T18:53:38.209Z,1.50
2023-01-29T18:56:06.906Z,1.40
2023-01-29T18:58:36.108Z,1.42
2023-01-29T19:01:07.144Z,1.25
2023-01-29T19:03:34.412Z,1.35
2023-01-29T19:06:02.089Z,1.35
2023-01-29T19:08:29.300Z,1.70
2023-01-29T19:10:56.432Z,1.52
2023-01-29T19:13:23.542Z,1.60
2023-01-29T19:15:50.814Z,1.55
2023-01-29T19:18:19.488Z,1.80
2023-01-29T19:20:46.589Z,1.63
2023-01-29T19:23:13.727Z,1.63
2023-01-29T19:25:40.829Z,1.67
2023-01-29T19:28:08.052Z,1.55
2023-01-29T19:30:35.351Z,1.40
2023-01-29T19:33:02.513Z,1.50
2023-01-29T19:35:30.980Z,1.70
2023-01-29T19:37:59.322Z,1.70
2023-01-29T19:40:26.665Z,1.50
2023-01-29T19:42:54.029Z,1.63
2023-01-29T19:45:23.697Z,1.70
2023-01-29T19:48:08.396Z,1.40
2023-01-29T19:50:36.897Z,1.70
2023-01-29T19:53:03.985Z,1.58
2023-01-29T19:55:31.108Z,1.42
2023-01-29T19:57:58.321Z,1.45
2023-01-29T20:00:25.915Z,1.77
2023-01-29T20:02:53.027Z,1.70
2023-01-29T20:05:20.410Z,1.70
2023-01-29T20:07:49.365Z,1.40
2023-01-29T20:10:17.113Z,1.58
2023-01-29T20:12:45.538Z,1.70
2023-01-29T20:15:13.349Z,1.50
2023-01-29T20:17:40.652Z,1.70
2023-01-29T20:20:11.017Z,1.70
2023-01-29T20:22:38.170Z,1.65
2023-01-29T20:25:07.398Z,1.88
2023-01-29T20:27:34.531Z,1.50
2023-01-29T20:30:01.737Z,1.60
2023-01-29T20:32:28.812Z,1.58
2023-01-29T20:34:55.937Z,1.40
2023-01-29T20:37:23.039Z,1.67
2023-01-29T20:39:50.159Z,1.75
2023-01-29T20:42:18.802Z,1.60
2023-01-29T20:44:45.896Z,1.40
2023-01-29T20:47:13.046Z,1.67
2023-01-29T20:49:40.186Z,1.60
2023-01-29T20:52:07.360Z,1.58
2023-01-29T20:54:34.473Z,1.50
2023-01-29T20:57:01.669Z,1.65
2023-01-29T20:59:30.126Z,1.73
2023-01-29T21:01:57.285Z,1.70
2023-01-29T21:04:24.658Z,1.50
2023-01-29T21:06:51.809Z,1.50
2023-01-29T21:09:18.940Z,1.50
2023-01-29T21:11:46.062Z,1.50
2023-01-29T21:14:13.197Z,1.70
2023-01-29T21:16:41.851Z,1.50
2023-01-29T21:19:09.305Z,1.60
2023-01-29T21:21:36.599Z,1.60
2023-01-29T21:24:04.121Z,1.67
2023-01-29T21:26:31.482Z,1.73
2023-01-29T21:28:58.562Z,1.60
2023-01-29T21:31:25.747Z,1.70
2023-01-29T21:33:54.335Z,1.40
2023-01-29T21:36:21.446Z,1.60
2023-01-29T21:38:48.887Z,1.75
2023-01-29T21:41:16.025Z,1.40
2023-01-29T21:43:44.709Z,1.65
2023-01-29T21:46:12.176Z,1.73
2023-01-29T21:48:40.072Z,1.50
2023-01-29T21:51:08.623Z,1.60
2023-01-29T21:53:36.411Z,1.40
2023-01-29T21:56:05.333Z,1.63
2023-01-29T21:58:32.498Z,1.65
2023-01-29T22:01:36.498Z,1.85
2023-01-29T22:03:47.570Z,1.48
2023-01-29T22:06:16.632Z,1.40
2023-01-29T22:08:43.941Z,1.50
2023-01-29T22:11:11.246Z,1.80
2023-01-29T22:13:38.602Z,1.70
2023-01-29T22:16:06.314Z,1.75
2023-01-29T22:18:33.559Z,1.65
2023-01-29T22:21:00.996Z,1.85
2023-01-29T22:23:29.902Z,1.80
2023-01-29T22:26:02.644Z,1.52
2023-01-29T22:28:29.847Z,1.80
2023-01-29T22:31:00.714Z,1.70
2023-01-29T22:33:27.847Z,1.80
2023-01-29T22:35:55.404Z,1.75
2023-01-29T22:38:22.806Z,1.73
2023-01-29T22:40:51.679Z,1.73
2023-01-29T22:43:19.231Z,1.80
2023-01-29T22:45:46.456Z,1.55
2023-01-29T22:48:13.916Z,2.13
2023-01-29T22:50:41.365Z,1.50
2023-01-29T22:53:08.940Z,1.85
2023-01-29T22:55:36.041Z,1.90
2023-01-29T22:58:04.515Z,1.80
2023-01-29T23:00:31.898Z,1.90
2023-01-29T23:02:59.007Z,1.80
2023-01-29T23:05:26.110Z,1.90
2023-01-29T23:07:53.187Z,1.70
2023-01-29T23:10:20.351Z,1.70
2023-01-29T23:12:47.460Z,1.80
2023-01-29T23:15:16.027Z,2.22
2023-01-29T23:17:43.210Z,1.60
2023-01-29T23:20:11.731Z,2.05
2023-01-29T23:22:38.834Z,1.90
2023-01-29T23:25:06.743Z,1.80
2023-01-29T23:27:33.850Z,2.10
2023-01-29T23:30:00.958Z,1.85
2023-01-29T23:32:29.626Z,1.90
2023-01-29T23:34:56.728Z,1.80
2023-01-29T23:37:23.892Z,1.90
2023-01-29T23:39:51.350Z,1.95
2023-01-29T23:42:18.702Z,1.77
2023-01-29T23:44:45.816Z,1.88
2023-01-29T23:47:12.933Z,2.00
2023-01-29T23:49:41.412Z,1.95
2023-01-29T23:52:08.497Z,1.83
2023-01-29T23:54:35.626Z,1.73
2023-01-29T23:57:02.732Z,1.90
2023-01-29T23:59:29.906Z,1.92
